Main page
METAR-TAF:

METAR-TAF

Airports :

Molde Airport. Årø

Molde, Norway

latitude: 62-45N, longitude: 007-16E, elevation: 0 m

Current weather observation

The report was made 44 minutes ago, at 04:50 UTC
Wind 4 kt from the Southwest, varying between South/Southwest and West
Temperature 8°C
Humidity 81%
Pressure 1022 hPa
Visibility 10 km or more
light rain

METAR: ENML 210450Z AUTO 23004KT 200V260 9999NDV -RA BKN022/// BKN026/// OVC035/// 08/05 Q1022

Time: 07:34 (05:34 UTC)

Forecast

The report was made 15 hours and 34 minutes ago, at 14:00 UTC
Forecast valid from 20 at 15 UTC to 20 at 19 UTC
Wind 10 kt from the South/Southwest
Visibility 10 km or more
Few clouds at a height of 5000 ft
Broken clouds at a height of 10000 ft
Probability 40%
from 20 at 15 UTC to 20 at 19 UTC
Wind 15 kt from the West/Northwest with gusts up to 25 kt

TAF: ENML 201400Z 2015/2019 21010KT 9999 FEW050 BKN100 PROB40 2015/2019 29015G25KT

Weather observations and forecasts of more than 4000 airports (METAR and TAF reports).

The available stations are represented by yellow and red dots on the map.

Hover mouse over dot to see the name of the station.

Then click to see weather observations and forecasts.

To change the map : click on the green buttons with a black cross to zoom in, on the green button with a dash to zoom out, or on the green arrows for adjacent maps.


METAR-TAF: